Main page
METAR-TAF:

METAR-TAF

Airports :

Bhavnagar Airport

Bhavnagar, India

latitude: 21-45-08N, longitude: 72-11-07E, elevation: 6 m

Current weather observation

The report was made 38 minutes ago, at 12:00 UTC
Wind 5 kt from the North/Northwest
Temperature 28°C
Humidity 48%
Pressure 1011 hPa
Visibility: 3000 m
smoke

METAR: VABV 031200Z 34005KT 3000 FU NSC 28/16 Q1011 NOSIG

Time: 18:08 (12:38 UTC)

Forecast

The report was made 1 hour and 38 minutes ago, at 11:00 UTC
Forecast valid from 03 at 12 UTC to 03 at 21 UTC
Wind 8 kt from the North
Visibility: 4000 m
smoke
Becoming
from 03 at 13 UTC to 03 at 15 UTC
Wind 7 kt from the North/Northeast
Visibility: 4000 m
smoke
Becoming
from 03 at 16 UTC to 03 at 18 UTC
Wind 8 kt from the North
Visibility: 4000 m
haze
Becoming
from 03 at 19 UTC to 03 at 21 UTC
Wind 8 kt from the North
Visibility: 4000 m
haze

TAF: VABV 031100Z 0312/0321 35008KT 4000 FU BECMG 0313/0315 02007KT 4000 FU NSC BECMG 0316/0318 35008KT 4000 HZ NSC BECMG 0319/0321 36008KT 4000 HZ NSC

Weather observations and forecasts of more than 4000 airports (METAR and TAF reports).

The available stations are represented by yellow and red dots on the map.

Hover mouse over dot to see the name of the station.

Then click to see weather observations and forecasts.

To change the map : click on the green buttons with a black cross to zoom in, on the green button with a dash to zoom out, or on the green arrows for adjacent maps.


METAR-TAF: